Time;durP1;ratioP1;P1;durP2;ratioP2;P2;SDS_P1;SDS_P2;PMS_P1;PMS_P2;Temp;Humidity;BMP_temperature;BMP_pressure;BME280_temperature;BME280_humidity;BME280_pressure;Samples;Min_cycle;Max_cycle;Signal;HPM_P1;HPM_P2
2022/01/04 00:00:06;;;;;;;3.80;2.60;;;;;;;-141.59;100.00;61776.25;5053482;28;20329;-87
2022/01/04 00:02:40;;;;;;;3.83;2.50;;;;;;;-141.59;100.00;61776.25;5041956;28;20220;-87
2022/01/04 00:05:08;;;;;;;3.20;2.00;;;;;;;-141.59;100.00;61776.25;5018898;28;20228;-87
2022/01/04 00:07:35;;;;;;;3.63;2.30;;;;;;;-141.59;100.00;61776.25;5044571;28;20252;-86
2022/01/04 00:10:03;;;;;;;3.17;2.07;;;;;;;-141.59;100.00;61776.25;5054416;28;20283;-87
2022/01/04 00:15:16;;;;;;;3.17;1.90;;;;;;;-141.59;100.00;61776.25;5050249;28;20222;-87
2022/01/04 00:17:43;;;;;;;5.93;1.90;;;;;;;-141.59;100.00;61776.25;5042700;28;20205;-87
2022/01/04 00:20:11;;;;;;;2.63;1.83;;;;;;;-141.59;100.00;61776.25;5020551;28;20233;-87
2022/01/04 00:22:38;;;;;;;1.83;1.40;;;;;;;-141.59;100.00;61776.25;5021238;28;20210;-87
2022/01/04 00:25:06;;;;;;;2.83;1.43;;;;;;;-141.59;100.00;61776.25;5026457;28;20202;-88
2022/01/04 00:27:33;;;;;;;2.33;1.50;;;;;;;-141.59;100.00;61776.25;5026953;28;20206;-87
2022/01/04 00:30:01;;;;;;;1.47;1.20;;;;;;;-141.59;100.00;61776.25;5055043;28;20268;-87
2022/01/04 00:32:29;;;;;;;1.60;1.20;;;;;;;-141.59;100.00;61776.25;5022473;28;20202;-88
2022/01/04 00:34:57;;;;;;;3.00;1.37;;;;;;;-141.59;100.00;61776.25;5025006;28;20225;-87
2022/01/04 00:37:24;;;;;;;3.97;1.90;;;;;;;-141.59;100.00;61776.25;5035430;28;20320;-87
2022/01/04 00:39:51;;;;;;;4.30;2.23;;;;;;;-141.59;100.00;61776.25;5041844;28;20225;-86
2022/01/04 00:42:18;;;;;;;3.23;1.83;;;;;;;-141.59;100.00;61776.25;5029262;28;20203;-87
2022/01/04 00:44:45;;;;;;;3.83;1.60;;;;;;;-141.59;100.00;61776.25;5038508;28;20206;-87
2022/01/04 00:47:12;;;;;;;3.03;1.50;;;;;;;-141.59;100.00;61776.25;5043316;28;20256;-88
2022/01/04 00:49:39;;;;;;;2.87;1.80;;;;;;;-141.59;100.00;61776.25;5039505;28;20210;-88
2022/01/04 00:52:12;;;;;;;4.90;1.70;;;;;;;-141.59;100.00;61776.25;5049250;28;20371;-88
2022/01/04 00:54:40;;;;;;;3.33;1.60;;;;;;;-141.59;100.00;61776.25;5057558;28;20228;-87
2022/01/04 00:57:07;;;;;;;1.73;1.37;;;;;;;-141.59;100.00;61776.25;5062179;28;20233;-86
2022/01/04 00:59:34;;;;;;;2.60;1.87;;;;;;;-141.59;100.00;61776.25;5031463;28;20241;-88
2022/01/04 01:02:01;;;;;;;2.53;1.70;;;;;;;-141.59;100.00;61776.25;5043672;28;20290;-88
2022/01/04 01:04:28;;;;;;;5.30;1.70;;;;;;;-141.59;100.00;61776.25;5033122;28;20272;-87
2022/01/04 01:06:57;;;;;;;2.57;1.43;;;;;;;-141.59;100.00;61776.25;5041910;28;20205;-87
2022/01/04 01:09:29;;;;;;;1.50;1.40;;;;;;;-141.59;100.00;61776.25;5053938;28;20217;-88
2022/01/04 01:11:56;;;;;;;3.23;1.83;;;;;;;-141.59;100.00;61776.25;5034549;28;20221;-87
2022/01/04 01:14:23;;;;;;;1.80;1.53;;;;;;;-141.59;100.00;61776.25;5028614;28;20275;-87
2022/01/04 01:16:50;;;;;;;2.70;1.60;;;;;;;-141.59;100.00;61776.25;5034892;28;20203;-87
2022/01/04 01:19:18;;;;;;;2.67;1.97;;;;;;;-141.59;100.00;61776.25;5033020;28;20236;-87
2022/01/04 01:21:45;;;;;;;2.43;1.63;;;;;;;-141.59;100.00;61776.25;5031809;28;20263;-88
2022/01/04 01:24:13;;;;;;;2.83;1.43;;;;;;;-141.59;100.00;61776.25;5027650;28;20217;-87
2022/01/04 01:26:42;;;;;;;2.10;1.30;;;;;;;-141.59;100.00;61776.25;5062118;28;20213;-87
2022/01/04 01:29:09;;;;;;;3.47;1.40;;;;;;;-141.59;100.00;61776.25;5022662;28;20222;-87
2022/01/04 01:31:36;;;;;;;3.10;1.80;;;;;;;-141.59;100.00;61776.25;5063842;28;20327;-87
2022/01/04 01:34:03;;;;;;;5.43;1.83;;;;;;;-141.59;100.00;61776.25;5032318;28;20194;-88
2022/01/04 01:36:31;;;;;;;1.53;1.10;;;;;;;-141.59;100.00;61776.25;5028393;28;20256;-87
2022/01/04 01:38:58;;;;;;;1.10;1.00;;;;;;;-141.59;100.00;61776.25;5041141;28;20266;-87
2022/01/04 01:41:27;;;;;;;1.20;1.10;;;;;;;-141.59;100.00;61776.25;5057196;28;20213;-88
2022/01/04 01:43:54;;;;;;;0.80;0.80;;;;;;;-141.59;100.00;61776.25;5019678;28;20230;-87
2022/01/04 01:46:22;;;;;;;1.30;0.83;;;;;;;-141.59;100.00;61776.25;5054849;28;20232;-87
2022/01/04 01:48:49;;;;;;;0.73;0.60;;;;;;;-141.59;100.00;61776.25;5057507;28;20208;-87
2022/01/04 01:51:17;;;;;;;0.83;0.80;;;;;;;-141.59;100.00;61776.25;5049357;28;20235;-89
2022/01/04 01:53:45;;;;;;;0.83;0.70;;;;;;;-141.59;100.00;61776.25;5047407;28;20210;-87
2022/01/04 01:56:12;;;;;;;1.97;1.13;;;;;;;-141.59;100.00;61776.25;5053549;28;20198;-88
2022/01/04 01:58:40;;;;;;;0.80;0.80;;;;;;;-141.59;100.00;61776.25;5022018;28;20204;-87
2022/01/04 02:01:09;;;;;;;0.53;0.53;;;;;;;-141.59;100.00;61776.25;5056810;28;20231;-87
2022/01/04 02:03:36;;;;;;;0.90;0.70;;;;;;;-141.59;100.00;61776.25;5055046;28;20202;-87
2022/01/04 02:06:04;;;;;;;0.60;0.60;;;;;;;-141.59;100.00;61776.25;5022129;28;20202;-87
2022/01/04 02:08:31;;;;;;;3.20;0.70;;;;;;;-141.59;100.00;61776.25;5035055;28;20214;-87
2022/01/04 02:10:59;;;;;;;0.80;0.80;;;;;;;-141.59;100.00;61776.25;5059770;28;20271;-88
2022/01/04 02:13:27;;;;;;;2.77;1.40;;;;;;;-141.59;100.00;61776.25;5050078;28;20327;-88
2022/01/04 02:15:56;;;;;;;2.07;1.40;;;;;;;-141.59;100.00;61776.25;5054148;28;20248;-87
2022/01/04 02:18:23;;;;;;;2.20;1.50;;;;;;;-141.59;100.00;61776.25;5054724;28;20218;-87
2022/01/04 02:20:52;;;;;;;2.30;1.30;;;;;;;-141.59;100.00;61776.25;5031557;28;20266;-87
2022/01/04 02:23:19;;;;;;;1.87;1.47;;;;;;;-141.59;100.00;61776.25;5039452;28;20204;-87
2022/01/04 02:25:48;;;;;;;1.67;1.20;;;;;;;-141.59;100.00;61776.25;5024413;28;20256;-88
2022/01/04 02:28:18;;;;;;;3.47;1.87;;;;;;;-141.59;100.00;61776.25;5018066;28;20227;-88
2022/01/04 02:30:45;;;;;;;3.03;1.83;;;;;;;-141.59;100.00;61776.25;5021783;28;20206;-88
2022/01/04 02:33:12;;;;;;;1.53;1.43;;;;;;;-141.59;100.00;61776.25;5021464;28;20353;-87
2022/01/04 02:35:39;;;;;;;1.40;1.30;;;;;;;-141.59;100.00;61776.25;5026890;28;20207;-88
2022/01/04 02:38:09;;;;;;;4.30;1.60;;;;;;;-141.59;100.00;61776.25;5054410;28;20257;-87
2022/01/04 02:40:36;;;;;;;3.77;1.60;;;;;;;-141.59;100.00;61776.25;5027275;28;20235;-88
2022/01/04 02:43:03;;;;;;;2.00;1.57;;;;;;;-141.59;100.00;61776.25;5027078;28;20209;-89
2022/01/04 02:45:30;;;;;;;2.43;1.67;;;;;;;-141.59;100.00;61776.25;5054865;28;20202;-88
2022/01/04 02:47:58;;;;;;;1.87;1.67;;;;;;;-141.59;100.00;61776.25;5034751;28;20206;-88
2022/01/04 02:50:25;;;;;;;5.30;1.83;;;;;;;-141.59;100.00;61776.25;5030720;28;20209;-87
2022/01/04 02:52:52;;;;;;;2.20;1.80;;;;;;;-141.59;100.00;61776.25;5030399;28;20277;-88
2022/01/04 02:55:21;;;;;;;2.70;1.77;;;;;;;-141.59;100.00;61776.25;5059128;28;20270;-88
2022/01/04 02:57:48;;;;;;;2.30;1.83;;;;;;;-141.59;100.00;61776.25;5036615;28;20203;-88
2022/01/04 03:00:17;;;;;;;2.30;1.70;;;;;;;-141.59;100.00;61776.25;5054266;28;20286;-88
2022/01/04 03:02:45;;;;;;;2.87;1.90;;;;;;;-141.59;100.00;61776.25;5041074;28;20303;-88
2022/01/04 03:05:12;;;;;;;2.33;2.00;;;;;;;-141.59;100.00;61776.25;5046785;28;20201;-87
2022/01/04 03:07:39;;;;;;;1.90;1.80;;;;;;;-141.59;100.00;61776.25;5023542;28;20218;-88
2022/01/04 03:10:07;;;;;;;3.33;1.90;;;;;;;-141.59;100.00;61776.25;5038772;28;20204;-88
2022/01/04 03:12:38;;;;;;;4.07;2.00;;;;;;;-141.59;100.00;61776.25;5031521;28;20241;-88
2022/01/04 03:15:06;;;;;;;2.23;1.83;;;;;;;-141.59;100.00;61776.25;5027601;28;20197;-88
2022/01/04 03:17:34;;;;;;;3.17;1.83;;;;;;;-141.59;100.00;61776.25;5063209;28;20267;-88
2022/01/04 03:20:01;;;;;;;2.27;1.70;;;;;;;-141.59;100.00;61776.25;5065401;28;20225;-88
2022/01/04 03:22:28;;;;;;;3.73;2.30;;;;;;;-141.59;100.00;61776.25;5029348;28;20311;-87
2022/01/04 03:24:55;;;;;;;6.90;1.93;;;;;;;-141.59;100.00;61776.25;5029368;28;20198;-88
2022/01/04 03:27:22;;;;;;;4.30;2.07;;;;;;;-141.59;100.00;61776.25;5027084;28;20225;-88
2022/01/04 03:29:51;;;;;;;4.03;2.10;;;;;;;-141.59;100.00;61776.25;5043273;28;20210;-88
2022/01/04 03:32:18;;;;;;;3.03;2.10;;;;;;;-141.59;100.00;61776.25;5050048;28;20198;-88
2022/01/04 03:34:45;;;;;;;3.17;1.97;;;;;;;-141.59;100.00;61776.25;5028474;28;20252;-88
2022/01/04 03:37:12;;;;;;;3.37;2.23;;;;;;;-141.59;100.00;61776.25;5034697;28;20208;-88
2022/01/04 03:39:39;;;;;;;3.50;2.47;;;;;;;-141.59;100.00;61776.25;5030023;28;20280;-88
2022/01/04 03:42:07;;;;;;;5.97;2.40;;;;;;;-141.59;100.00;61776.25;5037562;28;20326;-87
2022/01/04 03:44:34;;;;;;;4.10;2.60;;;;;;;-141.59;100.00;61776.25;5036565;28;20207;-88
2022/01/04 03:47:03;;;;;;;3.67;2.17;;;;;;;-141.59;100.00;61776.25;5029304;28;20309;-88
2022/01/04 03:49:30;;;;;;;3.97;2.30;;;;;;;-141.59;100.00;61776.25;5072340;28;20205;-89
2022/01/04 03:51:58;;;;;;;2.70;2.07;;;;;;;-141.59;100.00;61776.25;5061126;28;20292;-88
2022/01/04 03:54:25;;;;;;;2.87;2.30;;;;;;;-141.59;100.00;61776.25;5031104;28;20209;-88
2022/01/04 03:56:52;;;;;;;3.13;1.90;;;;;;;-141.59;100.00;61776.25;5025760;28;20272;-88
2022/01/04 03:59:19;;;;;;;4.30;2.40;;;;;;;-141.59;100.00;61776.25;5032465;28;20225;-88
2022/01/04 04:01:47;;;;;;;2.43;1.80;;;;;;;-141.59;100.00;61776.25;5037627;28;20333;-88
2022/01/04 04:04:16;;;;;;;5.43;2.03;;;;;;;-141.59;100.00;61776.25;5044805;28;20273;-88
2022/01/04 04:06:45;;;;;;;2.47;1.90;;;;;;;-141.59;100.00;61776.25;5040857;28;20254;-89
2022/01/04 04:09:12;;;;;;;2.53;2.13;;;;;;;-141.59;100.00;61776.25;5043143;28;20213;-89
2022/01/04 04:11:39;;;;;;;4.97;2.40;;;;;;;-141.59;100.00;61776.25;5062067;28;20209;-89
2022/01/04 04:14:06;;;;;;;3.27;2.40;;;;;;;-141.59;100.00;61776.25;5040659;28;20211;-88
2022/01/04 04:16:33;;;;;;;2.83;2.17;;;;;;;-141.59;100.00;61776.25;5030420;28;20217;-88
2022/01/04 04:19:01;;;;;;;3.23;2.07;;;;;;;-141.59;100.00;61776.25;5042082;28;20225;-88
2022/01/04 04:21:29;;;;;;;4.27;1.97;;;;;;;-141.59;100.00;61776.25;5027763;28;20221;-88
2022/01/04 04:23:56;;;;;;;4.13;2.03;;;;;;;-141.59;100.00;61776.25;5025234;28;20219;-88
2022/01/04 04:26:23;;;;;;;3.20;2.40;;;;;;;-141.59;100.00;61776.25;5057644;28;20248;-89
2022/01/04 04:28:50;;;;;;;5.40;2.13;;;;;;;-141.59;100.00;61776.25;5026892;28;20201;-88
2022/01/04 04:31:18;;;;;;;2.60;2.23;;;;;;;-141.59;100.00;61776.25;5038569;28;20198;-88
2022/01/04 04:33:45;;;;;;;5.37;2.00;;;;;;;-141.59;100.00;61776.25;5064455;28;20238;-88
2022/01/04 04:36:13;;;;;;;4.07;1.50;;;;;;;-141.59;100.00;61776.25;5021416;28;20207;-88
2022/01/04 04:38:41;;;;;;;2.33;1.20;;;;;;;-141.59;100.00;61776.25;5029023;28;20260;-88
2022/01/04 04:41:08;;;;;;;0.93;0.83;;;;;;;-141.59;100.00;61776.25;5058534;28;20226;-89
2022/01/04 04:43:35;;;;;;;0.97;0.97;;;;;;;-141.59;100.00;61776.25;5031244;28;20209;-89
2022/01/04 04:46:02;;;;;;;1.83;0.90;;;;;;;-141.59;100.00;61776.25;5055003;28;20268;-88
2022/01/04 04:48:30;;;;;;;1.13;0.90;;;;;;;-141.59;100.00;61776.25;5025880;28;20518;-88
2022/01/04 04:50:57;;;;;;;0.70;0.70;;;;;;;-141.59;100.00;61776.25;5039763;28;20201;-88
2022/01/04 04:53:24;;;;;;;2.73;1.77;;;;;;;-141.59;100.00;61776.25;5030734;28;20198;-88
2022/01/04 04:55:52;;;;;;;2.20;1.90;;;;;;;-141.59;100.00;61776.25;5032963;28;20210;-88
2022/01/04 04:58:19;;;;;;;3.27;1.70;;;;;;;-141.59;100.00;61776.25;5038753;28;20206;-88
2022/01/04 05:00:49;;;;;;;2.30;1.90;;;;;;;-141.59;100.00;61776.25;5060581;28;20322;-89
2022/01/04 05:03:16;;;;;;;3.33;1.93;;;;;;;-141.59;100.00;61776.25;5029444;28;20206;-88
2022/01/04 05:05:43;;;;;;;1.83;1.40;;;;;;;-141.59;100.00;61776.25;5062920;28;20221;-89
2022/01/04 05:08:10;;;;;;;2.83;2.07;;;;;;;-141.59;100.00;61776.25;5031590;28;20208;-89
2022/01/04 05:10:37;;;;;;;4.40;2.07;;;;;;;-141.59;100.00;61776.25;5039993;28;20206;-88
2022/01/04 05:13:06;;;;;;;3.40;2.00;;;;;;;-141.59;100.00;61776.25;5058463;28;20288;-89
2022/01/04 05:15:33;;;;;;;3.63;2.17;;;;;;;-141.59;100.00;61776.25;5017190;28;20306;-88
2022/01/04 05:18:00;;;;;;;3.77;2.07;;;;;;;-141.59;100.00;61776.25;5032564;28;20305;-88
2022/01/04 05:20:27;;;;;;;4.03;1.90;;;;;;;-141.59;100.00;61776.25;5036961;28;20221;-88
2022/01/04 05:22:54;;;;;;;2.20;1.73;;;;;;;-141.59;100.00;61776.25;5061325;28;20213;-87
2022/01/04 05:25:21;;;;;;;2.90;2.07;;;;;;;-141.59;100.00;61776.25;5038206;28;20654;-87
2022/01/04 05:27:50;;;;;;;3.60;1.83;;;;;;;-141.59;100.00;61776.25;5033546;28;20202;-87
2022/01/04 05:30:19;;;;;;;2.93;1.83;;;;;;;-141.59;100.00;61776.25;5021364;28;20210;-86
2022/01/04 05:32:46;;;;;;;3.30;2.40;;;;;;;-141.59;100.00;61776.25;5064777;28;20267;-86
2022/01/04 05:35:13;;;;;;;3.13;1.73;;;;;;;-141.59;100.00;61776.25;5041313;28;20217;-86
2022/01/04 05:37:40;;;;;;;2.97;1.93;;;;;;;-141.59;100.00;61776.25;5066996;28;20266;-87
2022/01/04 05:40:08;;;;;;;2.50;1.77;;;;;;;-141.59;100.00;61776.25;5029567;28;20222;-87
2022/01/04 05:42:35;;;;;;;3.17;2.00;;;;;;;-141.59;100.00;61776.25;5064104;28;20203;-87
2022/01/04 05:45:02;;;;;;;4.43;1.73;;;;;;;-141.59;100.00;61776.25;5025473;28;20293;-86
2022/01/04 05:47:31;;;;;;;3.20;1.83;;;;;;;-141.59;100.00;61776.25;5060870;28;20203;-87
2022/01/04 05:49:58;;;;;;;2.83;1.70;;;;;;;-141.59;100.00;61776.25;5023221;28;20202;-88
2022/01/04 05:52:25;;;;;;;2.40;1.80;;;;;;;-141.59;100.00;61776.25;5062890;28;20298;-87
2022/01/04 05:54:52;;;;;;;3.33;1.70;;;;;;;-141.59;100.00;61776.25;5036882;28;20228;-87
2022/01/04 05:57:19;;;;;;;4.17;1.90;;;;;;;-141.59;100.00;61776.25;5058211;28;20213;-87
2022/01/04 05:59:47;;;;;;;2.00;1.70;;;;;;;-141.59;100.00;61776.25;5038049;28;20210;-87
2022/01/04 06:02:14;;;;;;;3.40;1.70;;;;;;;-141.59;100.00;61776.25;5036313;28;20227;-87
2022/01/04 06:04:43;;;;;;;3.13;1.93;;;;;;;-141.59;100.00;61776.25;5041928;28;20220;-87
2022/01/04 06:07:10;;;;;;;6.90;1.80;;;;;;;-141.59;100.00;61776.25;5039667;28;20199;-87
2022/01/04 06:09:44;;;;;;;1.60;1.50;;;;;;;-141.59;100.00;61776.25;5025425;28;20207;-87
2022/01/04 06:14:59;;;;;;;3.57;1.60;;;;;;;-141.59;100.00;61776.25;5041512;28;20234;-87
2022/01/04 06:17:28;;;;;;;2.57;1.50;;;;;;;-141.59;100.00;61776.25;5042914;28;20309;-87
2022/01/04 06:19:58;;;;;;;3.50;1.40;;;;;;;-141.59;100.00;61776.25;5055393;28;20244;-87
2022/01/04 06:22:26;;;;;;;1.70;1.33;;;;;;;-141.59;100.00;61776.25;5024739;28;20206;-87
2022/01/04 06:24:57;;;;;;;1.93;1.50;;;;;;;-141.59;100.00;61776.25;5038938;28;20201;-87
2022/01/04 06:27:24;;;;;;;2.40;1.37;;;;;;;-141.59;100.00;61776.25;5037523;28;20210;-87
2022/01/04 06:29:52;;;;;;;1.30;1.20;;;;;;;-141.59;100.00;61776.25;5023458;28;20206;-87
2022/01/04 06:32:19;;;;;;;2.97;1.97;;;;;;;-141.59;100.00;61776.25;5025656;28;20208;-87
2022/01/04 06:34:46;;;;;;;4.27;2.97;;;;;;;-141.59;100.00;61776.25;5029131;28;20213;-87
2022/01/04 06:37:15;;;;;;;3.47;1.60;;;;;;;-141.59;100.00;61776.25;5044784;28;20230;-86
2022/01/04 06:39:42;;;;;;;2.77;1.40;;;;;;;-141.59;100.00;61776.25;5034570;28;20306;-87
2022/01/04 06:42:10;;;;;;;2.47;1.40;;;;;;;-141.59;100.00;61776.25;5028133;28;20222;-89
2022/01/04 06:44:37;;;;;;;1.77;1.57;;;;;;;-141.59;100.00;61776.25;5044174;28;20194;-89
2022/01/04 06:47:05;;;;;;;2.33;1.53;;;;;;;-141.59;100.00;61776.25;5030764;28;20206;-88
2022/01/04 06:49:32;;;;;;;2.47;1.60;;;;;;;-141.59;100.00;61776.25;5024909;28;20284;-88
2022/01/04 06:51:59;;;;;;;4.27;2.00;;;;;;;-141.59;100.00;61776.25;5041790;28;20229;-89
2022/01/04 06:54:28;;;;;;;4.50;1.90;;;;;;;-141.59;100.00;61776.25;5061923;28;20309;-88
2022/01/04 06:56:57;;;;;;;3.63;2.50;;;;;;;-141.59;100.00;61776.25;5032192;28;20799;-88
2022/01/04 06:59:24;;;;;;;5.87;2.80;;;;;;;-141.59;100.00;61776.25;5064052;28;20233;-88
2022/01/04 07:01:52;;;;;;;3.93;2.87;;;;;;;-141.59;100.00;61776.25;5049819;28;20283;-89
2022/01/04 07:04:19;;;;;;;4.90;2.93;;;;;;;-141.59;100.00;61776.25;5042792;28;20301;-89
2022/01/04 07:06:46;;;;;;;4.83;2.70;;;;;;;-141.59;100.00;61776.25;5048445;28;20202;-89
2022/01/04 07:09:13;;;;;;;3.47;2.73;;;;;;;-141.59;100.00;61776.25;5027135;28;20245;-88
2022/01/04 07:11:42;;;;;;;3.13;2.57;;;;;;;-141.59;100.00;61776.25;5025290;28;20289;-88
2022/01/04 07:14:09;;;;;;;3.73;2.13;;;;;;;-141.59;100.00;61776.25;5026815;28;20203;-89
2022/01/04 07:16:36;;;;;;;3.80;2.47;;;;;;;-141.59;100.00;61776.25;5068567;28;20298;-89
2022/01/04 07:19:04;;;;;;;2.40;2.00;;;;;;;-141.59;100.00;61776.25;5048043;28;20199;-90
2022/01/04 07:21:31;;;;;;;2.53;2.13;;;;;;;-141.59;100.00;61776.25;5064033;28;20214;-89
2022/01/04 07:23:58;;;;;;;4.23;1.80;;;;;;;-141.59;100.00;61776.25;5019652;28;20268;-88
2022/01/04 07:26:25;;;;;;;2.63;1.90;;;;;;;-141.59;100.00;61776.25;5039546;28;20213;-89
2022/01/04 07:28:54;;;;;;;5.23;2.00;;;;;;;-141.59;100.00;61776.25;5040239;28;20213;-89
2022/01/04 07:31:21;;;;;;;1.87;1.43;;;;;;;-141.59;100.00;61776.25;5057616;28;20266;-88
2022/01/04 07:33:48;;;;;;;2.43;1.40;;;;;;;-141.59;100.00;61776.25;5053139;28;20269;-88
2022/01/04 07:36:16;;;;;;;2.73;2.10;;;;;;;-141.59;100.00;61776.25;5015688;28;20217;-88
2022/01/04 07:38:44;;;;;;;3.10;1.80;;;;;;;-141.59;100.00;61776.25;5039967;28;20291;-88
2022/01/04 07:41:12;;;;;;;2.57;1.67;;;;;;;-141.59;100.00;61776.25;5057149;28;20319;-89
2022/01/04 07:43:39;;;;;;;3.33;1.83;;;;;;;-141.59;100.00;61776.25;5062437;28;20221;-88
2022/01/04 07:46:08;;;;;;;4.10;2.20;;;;;;;-141.59;100.00;61776.25;5047476;28;20280;-89
2022/01/04 07:48:35;;;;;;;3.90;2.00;;;;;;;-141.59;100.00;61776.25;5026169;28;20202;-89
2022/01/04 07:51:02;;;;;;;2.80;1.77;;;;;;;-141.59;100.00;61776.25;5042882;28;20256;-88
2022/01/04 07:53:31;;;;;;;1.50;1.40;;;;;;;-141.59;100.00;61776.25;5018479;28;20301;-88
2022/01/04 07:55:58;;;;;;;2.53;1.80;;;;;;;-141.59;100.00;61776.25;5027163;28;20206;-90
2022/01/04 07:58:25;;;;;;;1.53;1.37;;;;;;;-141.59;100.00;61776.25;5033192;28;20205;-88
2022/01/04 08:00:53;;;;;;;2.10;1.60;;;;;;;-141.59;100.00;61776.25;5033796;28;20237;-88
2022/01/04 08:03:21;;;;;;;3.03;1.50;;;;;;;-141.59;100.00;61776.25;5039731;28;20214;-89
2022/01/04 08:05:49;;;;;;;2.53;1.60;;;;;;;-141.59;100.00;61776.25;5030720;28;20202;-88
2022/01/04 08:08:16;;;;;;;2.00;1.60;;;;;;;-141.59;100.00;61776.25;5016470;28;20293;-89
2022/01/04 08:10:45;;;;;;;5.27;2.50;;;;;;;-141.59;100.00;61776.25;5031958;28;20218;-89
2022/01/04 08:13:12;;;;;;;6.97;4.00;;;;;;;-141.59;100.00;61776.25;5031039;28;20214;-89
2022/01/04 08:15:39;;;;;;;4.17;2.10;;;;;;;-141.59;100.00;61776.25;5032537;28;20210;-89
2022/01/04 08:18:07;;;;;;;4.17;2.20;;;;;;;-141.59;100.00;61776.25;5024955;28;20227;-89
2022/01/04 08:20:35;;;;;;;2.70;2.10;;;;;;;-141.59;100.00;61776.25;5052365;28;20218;-88
2022/01/04 08:23:03;;;;;;;3.23;2.10;;;;;;;-141.59;100.00;61776.25;5041965;28;20206;-88
2022/01/04 08:25:31;;;;;;;4.77;2.67;;;;;;;-141.59;100.00;61776.25;5032874;28;20257;-88
2022/01/04 08:27:59;;;;;;;3.23;1.87;;;;;;;-141.59;100.00;61776.25;5025929;28;20202;-88
2022/01/04 08:30:26;;;;;;;1.40;1.30;;;;;;;-141.59;100.00;61776.25;5058701;28;20206;-88
2022/01/04 08:32:54;;;;;;;1.10;1.00;;;;;;;-141.59;100.00;61776.25;5037956;28;20197;-87
2022/01/04 08:35:22;;;;;;;1.47;0.93;;;;;;;-141.59;100.00;61776.25;5021877;28;20202;-88
2022/01/04 08:37:50;;;;;;;1.00;0.90;;;;;;;-141.59;100.00;61776.25;5031422;28;20337;-87
2022/01/04 08:40:18;;;;;;;0.97;0.80;;;;;;;-141.59;100.00;61776.25;5024048;28;20336;-88
2022/01/04 08:42:45;;;;;;;1.03;1.00;;;;;;;-141.59;100.00;61776.25;5043465;28;20226;-87
2022/01/04 08:45:12;;;;;;;1.30;1.20;;;;;;;-141.59;100.00;61776.25;5054583;28;20292;-90
2022/01/04 08:47:39;;;;;;;1.27;1.13;;;;;;;-141.59;100.00;61776.25;5038640;28;20201;-87
2022/01/04 08:50:10;;;;;;;1.20;1.10;;;;;;;-141.59;100.00;61776.25;5027605;28;20256;-89
2022/01/04 08:52:37;;;;;;;0.93;0.90;;;;;;;-141.59;100.00;61776.25;5026402;28;20214;-87
2022/01/04 08:55:07;;;;;;;1.20;1.10;;;;;;;-141.59;100.00;61776.25;5036404;28;20210;-88
2022/01/04 08:57:35;;;;;;;1.50;1.00;;;;;;;-141.59;100.00;61776.25;5052774;28;20214;-87
2022/01/04 09:00:03;;;;;;;1.13;1.00;;;;;;;-141.59;100.00;61776.25;5030265;28;20286;-88
2022/01/04 09:02:32;;;;;;;1.13;0.90;;;;;;;-141.59;100.00;61776.25;5026992;28;20381;-88
2022/01/04 09:05:00;;;;;;;1.30;1.20;;;;;;;-141.59;100.00;61776.25;5040442;28;20206;-87
2022/01/04 09:07:28;;;;;;;1.33;1.10;;;;;;;-141.59;100.00;61776.25;5034077;28;20264;-86
2022/01/04 09:09:55;;;;;;;1.00;0.93;;;;;;;-141.59;100.00;61776.25;5057276;28;20198;-87
2022/01/04 09:12:27;;;;;;;1.30;1.20;;;;;;;-141.59;100.00;61776.25;5034862;28;20261;-87
2022/01/04 09:14:59;;;;;;;1.67;1.03;;;;;;;-141.59;100.00;61776.25;5054946;28;20213;-88
2022/01/04 09:20:13;;;;;;;0.93;0.90;;;;;;;-141.59;100.00;61776.25;5034697;28;20225;-87
2022/01/04 09:22:42;;;;;;;1.10;1.00;;;;;;;-141.59;100.00;61776.25;5059212;28;20230;-86
2022/01/04 09:25:10;;;;;;;1.20;1.00;;;;;;;-141.59;100.00;61776.25;5042648;28;20243;-87
2022/01/04 09:27:39;;;;;;;1.90;1.17;;;;;;;-141.59;100.00;61776.25;5055377;28;20296;-89
2022/01/04 09:30:07;;;;;;;1.00;0.90;;;;;;;-141.59;100.00;61776.25;5022067;28;20321;-88
2022/01/04 09:32:36;;;;;;;1.57;0.90;;;;;;;-141.59;100.00;61776.25;5025985;28;20209;-87
2022/01/04 09:35:05;;;;;;;2.03;0.90;;;;;;;-141.59;100.00;61776.25;5058901;28;20244;-87
2022/01/04 09:37:32;;;;;;;1.20;1.10;;;;;;;-141.59;100.00;61776.25;5042014;28;20287;-87
2022/01/04 09:39:59;;;;;;;0.83;0.83;;;;;;;-141.59;100.00;61776.25;5030200;28;20280;-87
2022/01/04 09:42:27;;;;;;;1.17;1.10;;;;;;;-141.59;100.00;61776.25;5047371;28;20221;-87
2022/01/04 09:44:55;;;;;;;1.50;1.10;;;;;;;-141.59;100.00;61776.25;5054553;28;20207;-89
2022/01/04 09:47:22;;;;;;;2.63;1.07;;;;;;;-141.59;100.00;61776.25;5023258;28;20202;-85
2022/01/04 09:49:49;;;;;;;1.83;1.07;;;;;;;-141.59;100.00;61776.25;5020582;28;20221;-87
2022/01/04 09:52:21;;;;;;;1.63;1.10;;;;;;;-141.59;100.00;61776.25;5031368;28;20276;-86
2022/01/04 09:54:52;;;;;;;1.20;1.00;;;;;;;-141.59;100.00;61776.25;5055943;28;20228;-87
2022/01/04 09:57:20;;;;;;;3.30;1.30;;;;;;;-141.59;100.00;61776.25;5024317;28;20272;-87
2022/01/04 09:59:49;;;;;;;1.40;1.30;;;;;;;-141.59;100.00;61776.25;5051825;28;20199;-88
2022/01/04 10:02:19;;;;;;;1.00;0.90;;;;;;;-141.59;100.00;61776.25;5025219;28;20226;-88
2022/01/04 10:04:47;;;;;;;1.10;1.00;;;;;;;-141.59;100.00;61776.25;5020745;28;20203;-87
2022/01/04 10:07:14;;;;;;;0.97;0.97;;;;;;;-141.59;100.00;61776.25;5054793;28;20207;-88
2022/01/04 10:09:44;;;;;;;1.17;1.07;;;;;;;-141.59;100.00;61776.25;5055886;28;20232;-87
2022/01/04 10:12:13;;;;;;;0.93;0.93;;;;;;;-141.59;100.00;61776.25;5052244;28;20274;-87
2022/01/04 10:14:43;;;;;;;1.60;1.23;;;;;;;-141.59;100.00;61776.25;5053051;28;20199;-86
2022/01/04 10:17:13;;;;;;;1.00;0.90;;;;;;;-141.59;100.00;61776.25;5053809;28;20260;-87
2022/01/04 10:19:44;;;;;;;1.60;1.17;;;;;;;-141.59;100.00;61776.25;5032924;28;20210;-86
2022/01/04 10:22:18;;;;;;;2.07;1.30;;;;;;;-141.59;100.00;61776.25;5032214;28;20284;-86
2022/01/04 10:24:47;;;;;;;1.10;1.00;;;;;;;-141.59;100.00;61776.25;5022533;28;20215;-86
2022/01/04 10:27:30;;;;;;;1.43;1.20;;;;;;;-141.59;100.00;61776.25;5052116;28;20260;-87
2022/01/04 10:30:22;;;;;;;1.33;1.10;;;;;;;-141.59;100.00;61776.25;5031807;28;20207;-87
2022/01/04 10:32:52;;;;;;;1.30;1.20;;;;;;;-141.59;100.00;61776.25;5050786;28;20268;-87
2022/01/04 10:35:27;;;;;;;1.40;1.23;;;;;;;-141.59;100.00;61776.25;5019655;28;20306;-88
2022/01/04 10:37:55;;;;;;;1.20;1.10;;;;;;;-141.59;100.00;61776.25;5023356;28;20269;-86
2022/01/04 10:40:25;;;;;;;1.43;1.10;;;;;;;-141.59;100.00;61776.25;5024719;28;20207;-87
2022/01/04 10:42:52;;;;;;;0.90;0.83;;;;;;;-141.59;100.00;61776.25;5028610;28;20255;-87
2022/01/04 10:45:29;;;;;;;1.07;0.97;;;;;;;-141.59;100.00;61776.25;5032573;28;20203;-86
2022/01/04 10:47:57;;;;;;;1.73;1.00;;;;;;;-141.59;100.00;61776.25;5043401;28;20296;-87
2022/01/04 10:50:35;;;;;;;1.10;1.00;;;;;;;-141.59;100.00;61776.25;5041295;28;20209;-86
2022/01/04 10:53:04;;;;;;;2.17;1.10;;;;;;;-141.59;100.00;61776.25;5025917;28;20213;-86
2022/01/04 10:55:33;;;;;;;1.20;0.90;;;;;;;-141.59;100.00;61776.25;5056951;28;20229;-89
2022/01/04 10:58:01;;;;;;;3.90;1.20;;;;;;;-141.59;100.00;61776.25;5042168;28;20238;-87
2022/01/04 11:00:29;;;;;;;1.17;1.00;;;;;;;-141.59;100.00;61776.25;5055229;28;20231;-89
2022/01/04 11:02:58;;;;;;;1.13;0.90;;;;;;;-141.59;100.00;61776.25;5041547;28;20301;-88
2022/01/04 11:05:26;;;;;;;1.73;1.20;;;;;;;-141.59;100.00;61776.25;5046001;28;20241;-87
2022/01/04 11:08:03;;;;;;;1.63;1.00;;;;;;;-141.59;100.00;61776.25;5022151;28;20214;-88
2022/01/04 11:10:34;;;;;;;1.37;1.00;;;;;;;-141.59;100.00;61776.25;5034878;28;20293;-87
2022/01/04 11:13:01;;;;;;;1.10;1.00;;;;;;;-141.59;100.00;61776.25;5038635;28;20214;-87
2022/01/04 11:15:29;;;;;;;1.80;1.10;;;;;;;-141.59;100.00;61776.25;5059137;28;20210;-86
2022/01/04 11:17:58;;;;;;;1.57;0.90;;;;;;;-141.59;100.00;61776.25;5024670;28;20214;-87
2022/01/04 11:20:25;;;;;;;1.07;0.97;;;;;;;-141.59;100.00;61776.25;5051557;28;20219;-86